sensor_id;sensor_type;location;lat;lon;timestamp;P1;durP1;ratioP1;P2;durP2;ratioP2
61523;SDS011;47393;38.758;-9.164;2022-08-01T00:00:55;29.25;;;21.00;;
61523;SDS011;47393;38.758;-9.164;2022-08-01T00:02:55;33.97;;;20.95;;
61523;SDS011;47393;38.758;-9.164;2022-08-01T00:04:57;32.70;;;21.85;;
61523;SDS011;47393;38.758;-9.164;2022-08-01T00:06:58;35.70;;;21.38;;
61523;SDS011;47393;38.758;-9.164;2022-08-01T00:08:59;30.20;;;21.85;;
61523;SDS011;47393;38.758;-9.164;2022-08-01T00:11:00;30.33;;;21.23;;
61523;SDS011;47393;38.758;-9.164;2022-08-01T00:13:00;28.25;;;21.70;;
61523;SDS011;47393;38.758;-9.164;2022-08-01T00:15:02;25.83;;;20.27;;
61523;SDS011;47393;38.758;-9.164;2022-08-01T00:17:04;29.58;;;20.13;;
61523;SDS011;47393;38.758;-9.164;2022-08-01T00:19:05;28.60;;;21.70;;
61523;SDS011;47393;38.758;-9.164;2022-08-01T00:21:06;29.38;;;21.25;;
61523;SDS011;47393;38.758;-9.164;2022-08-01T00:23:07;27.60;;;22.27;;
61523;SDS011;47393;38.758;-9.164;2022-08-01T00:25:08;29.67;;;20.95;;
61523;SDS011;47393;38.758;-9.164;2022-08-01T00:27:09;34.97;;;22.52;;
61523;SDS011;47393;38.758;-9.164;2022-08-01T00:29:10;34.92;;;21.90;;
61523;SDS011;47393;38.758;-9.164;2022-08-01T00:31:10;26.08;;;21.05;;
61523;SDS011;47393;38.758;-9.164;2022-08-01T00:33:11;33.42;;;21.23;;
61523;SDS011;47393;38.758;-9.164;2022-08-01T00:35:12;29.45;;;21.23;;
61523;SDS011;47393;38.758;-9.164;2022-08-01T00:37:13;29.67;;;22.55;;
61523;SDS011;47393;38.758;-9.164;2022-08-01T00:39:14;33.08;;;23.77;;
61523;SDS011;47393;38.758;-9.164;2022-08-01T00:41:14;35.75;;;23.77;;
61523;SDS011;47393;38.758;-9.164;2022-08-01T00:43:15;39.90;;;25.63;;
61523;SDS011;47393;38.758;-9.164;2022-08-01T00:45:16;37.85;;;28.10;;
61523;SDS011;47393;38.758;-9.164;2022-08-01T00:47:17;45.53;;;30.75;;
61523;SDS011;47393;38.758;-9.164;2022-08-01T00:49:18;41.45;;;28.15;;
61523;SDS011;47393;38.758;-9.164;2022-08-01T00:51:19;44.75;;;28.00;;
61523;SDS011;47393;38.758;-9.164;2022-08-01T00:53:20;47.53;;;31.65;;
61523;SDS011;47393;38.758;-9.164;2022-08-01T00:55:21;44.53;;;31.90;;
61523;SDS011;47393;38.758;-9.164;2022-08-01T00:57:22;52.97;;;35.55;;
61523;SDS011;47393;38.758;-9.164;2022-08-01T00:59:23;50.42;;;36.72;;
61523;SDS011;47393;38.758;-9.164;2022-08-01T01:01:24;45.13;;;35.13;;
61523;SDS011;47393;38.758;-9.164;2022-08-01T01:03:25;53.65;;;38.72;;
61523;SDS011;47393;38.758;-9.164;2022-08-01T01:05:26;64.38;;;42.65;;
61523;SDS011;47393;38.758;-9.164;2022-08-01T01:16:44;70.07;;;49.97;;
61523;SDS011;47393;38.758;-9.164;2022-08-01T01:18:47;66.80;;;49.55;;
61523;SDS011;47393;38.758;-9.164;2022-08-01T01:20:57;83.55;;;45.22;;
61523;SDS011;47393;38.758;-9.164;2022-08-01T01:27:39;49.55;;;35.78;;
61523;SDS011;47393;38.758;-9.164;2022-08-01T01:29:44;48.88;;;32.20;;
61523;SDS011;47393;38.758;-9.164;2022-08-01T01:32:06;33.40;;;27.45;;
61523;SDS011;47393;38.758;-9.164;2022-08-01T01:34:11;32.03;;;22.88;;
61523;SDS011;47393;38.758;-9.164;2022-08-01T01:36:15;34.50;;;23.30;;
61523;SDS011;47393;38.758;-9.164;2022-08-01T01:38:21;30.73;;;19.55;;
61523;SDS011;47393;38.758;-9.164;2022-08-01T01:40:23;32.67;;;18.27;;
61523;SDS011;47393;38.758;-9.164;2022-08-01T01:42:28;28.63;;;17.02;;
61523;SDS011;47393;38.758;-9.164;2022-08-01T01:44:32;29.05;;;17.20;;
61523;SDS011;47393;38.758;-9.164;2022-08-01T01:46:34;27.70;;;17.25;;
61523;SDS011;47393;38.758;-9.164;2022-08-01T01:48:37;21.55;;;16.17;;
61523;SDS011;47393;38.758;-9.164;2022-08-01T01:50:40;22.52;;;15.35;;
61523;SDS011;47393;38.758;-9.164;2022-08-01T01:52:43;23.83;;;15.00;;
61523;SDS011;47393;38.758;-9.164;2022-08-01T01:54:46;17.90;;;14.15;;
61523;SDS011;47393;38.758;-9.164;2022-08-01T01:56:50;28.67;;;14.52;;
61523;SDS011;47393;38.758;-9.164;2022-08-01T01:58:55;21.50;;;14.48;;
61523;SDS011;47393;38.758;-9.164;2022-08-01T02:00:59;20.63;;;13.98;;
61523;SDS011;47393;38.758;-9.164;2022-08-01T02:03:02;17.70;;;13.45;;
61523;SDS011;47393;38.758;-9.164;2022-08-01T02:05:06;23.90;;;14.30;;
61523;SDS011;47393;38.758;-9.164;2022-08-01T02:07:11;25.10;;;14.52;;
61523;SDS011;47393;38.758;-9.164;2022-08-01T02:09:16;19.05;;;13.57;;
61523;SDS011;47393;38.758;-9.164;2022-08-01T02:11:19;25.52;;;15.40;;
61523;SDS011;47393;38.758;-9.164;2022-08-01T02:13:21;22.60;;;15.82;;
61523;SDS011;47393;38.758;-9.164;2022-08-01T02:15:22;26.38;;;15.55;;
61523;SDS011;47393;38.758;-9.164;2022-08-01T02:17:24;18.13;;;14.95;;
61523;SDS011;47393;38.758;-9.164;2022-08-01T02:19:27;21.80;;;15.02;;
61523;SDS011;47393;38.758;-9.164;2022-08-01T02:21:30;29.00;;;20.10;;
61523;SDS011;47393;38.758;-9.164;2022-08-01T02:23:36;33.30;;;22.98;;
61523;SDS011;47393;38.758;-9.164;2022-08-01T02:25:42;33.08;;;23.48;;
61523;SDS011;47393;38.758;-9.164;2022-08-01T02:29:52;42.50;;;25.10;;
61523;SDS011;47393;38.758;-9.164;2022-08-01T02:32:04;38.42;;;23.80;;
61523;SDS011;47393;38.758;-9.164;2022-08-01T02:34:08;37.28;;;21.83;;
61523;SDS011;47393;38.758;-9.164;2022-08-01T02:36:10;36.25;;;21.55;;
61523;SDS011;47393;38.758;-9.164;2022-08-01T02:38:13;32.25;;;22.73;;
61523;SDS011;47393;38.758;-9.164;2022-08-01T02:40:15;40.67;;;23.65;;
61523;SDS011;47393;38.758;-9.164;2022-08-01T02:42:18;37.80;;;21.63;;
61523;SDS011;47393;38.758;-9.164;2022-08-01T02:44:23;37.22;;;21.95;;
61523;SDS011;47393;38.758;-9.164;2022-08-01T02:46:29;28.42;;;20.08;;
61523;SDS011;47393;38.758;-9.164;2022-08-01T02:48:37;29.15;;;17.23;;
61523;SDS011;47393;38.758;-9.164;2022-08-01T02:50:42;25.02;;;15.75;;
61523;SDS011;47393;38.758;-9.164;2022-08-01T02:52:50;27.65;;;15.18;;
61523;SDS011;47393;38.758;-9.164;2022-08-01T02:54:53;21.13;;;13.20;;
61523;SDS011;47393;38.758;-9.164;2022-08-01T02:56:56;24.95;;;12.93;;
61523;SDS011;47393;38.758;-9.164;2022-08-01T02:58:59;26.17;;;13.43;;
61523;SDS011;47393;38.758;-9.164;2022-08-01T03:01:02;25.25;;;12.15;;
61523;SDS011;47393;38.758;-9.164;2022-08-01T03:03:06;23.08;;;12.77;;
61523;SDS011;47393;38.758;-9.164;2022-08-01T03:05:08;24.63;;;12.40;;
61523;SDS011;47393;38.758;-9.164;2022-08-01T03:07:10;27.67;;;12.80;;
61523;SDS011;47393;38.758;-9.164;2022-08-01T03:09:13;21.80;;;12.50;;
61523;SDS011;47393;38.758;-9.164;2022-08-01T03:11:15;21.95;;;13.70;;
61523;SDS011;47393;38.758;-9.164;2022-08-01T03:13:18;25.60;;;14.52;;
61523;SDS011;47393;38.758;-9.164;2022-08-01T03:17:24;24.08;;;13.63;;
61523;SDS011;47393;38.758;-9.164;2022-08-01T03:19:31;29.52;;;14.23;;
61523;SDS011;47393;38.758;-9.164;2022-08-01T03:21:33;28.55;;;14.52;;
61523;SDS011;47393;38.758;-9.164;2022-08-01T03:23:36;23.90;;;14.80;;
61523;SDS011;47393;38.758;-9.164;2022-08-01T03:25:39;25.58;;;14.32;;
61523;SDS011;47393;38.758;-9.164;2022-08-01T03:27:42;23.58;;;13.52;;
61523;SDS011;47393;38.758;-9.164;2022-08-01T03:29:46;25.23;;;13.70;;
61523;SDS011;47393;38.758;-9.164;2022-08-01T03:31:48;22.60;;;13.98;;
61523;SDS011;47393;38.758;-9.164;2022-08-01T03:33:50;21.77;;;13.82;;
61523;SDS011;47393;38.758;-9.164;2022-08-01T03:35:52;28.27;;;14.38;;
61523;SDS011;47393;38.758;-9.164;2022-08-01T03:37:57;24.88;;;14.18;;
61523;SDS011;47393;38.758;-9.164;2022-08-01T03:40:43;26.67;;;14.18;;
61523;SDS011;47393;38.758;-9.164;2022-08-01T03:42:32;28.83;;;15.20;;
61523;SDS011;47393;38.758;-9.164;2022-08-01T03:44:36;28.38;;;16.27;;
61523;SDS011;47393;38.758;-9.164;2022-08-01T03:46:43;32.07;;;17.90;;
61523;SDS011;47393;38.758;-9.164;2022-08-01T03:48:48;29.08;;;16.80;;
61523;SDS011;47393;38.758;-9.164;2022-08-01T03:50:51;28.67;;;17.23;;
61523;SDS011;47393;38.758;-9.164;2022-08-01T03:52:53;32.42;;;17.40;;
61523;SDS011;47393;38.758;-9.164;2022-08-01T03:55:02;32.95;;;16.67;;
61523;SDS011;47393;38.758;-9.164;2022-08-01T03:57:06;29.42;;;16.45;;
61523;SDS011;47393;38.758;-9.164;2022-08-01T03:59:09;27.08;;;16.08;;
61523;SDS011;47393;38.758;-9.164;2022-08-01T04:01:10;26.92;;;15.73;;
61523;SDS011;47393;38.758;-9.164;2022-08-01T04:03:12;30.25;;;16.63;;
61523;SDS011;47393;38.758;-9.164;2022-08-01T04:05:13;24.88;;;15.65;;
61523;SDS011;47393;38.758;-9.164;2022-08-01T04:07:25;35.38;;;16.48;;
61523;SDS011;47393;38.758;-9.164;2022-08-01T04:09:30;28.98;;;16.70;;
61523;SDS011;47393;38.758;-9.164;2022-08-01T04:11:31;34.85;;;15.98;;
61523;SDS011;47393;38.758;-9.164;2022-08-01T04:13:33;31.42;;;16.33;;
61523;SDS011;47393;38.758;-9.164;2022-08-01T04:15:34;28.10;;;17.15;;
61523;SDS011;47393;38.758;-9.164;2022-08-01T04:17:35;28.35;;;15.98;;
61523;SDS011;47393;38.758;-9.164;2022-08-01T04:19:35;24.73;;;15.32;;
61523;SDS011;47393;38.758;-9.164;2022-08-01T04:21:36;30.05;;;15.48;;
61523;SDS011;47393;38.758;-9.164;2022-08-01T04:23:38;26.77;;;15.68;;
61523;SDS011;47393;38.758;-9.164;2022-08-01T04:25:42;30.98;;;16.60;;
61523;SDS011;47393;38.758;-9.164;2022-08-01T04:27:45;24.48;;;16.05;;
61523;SDS011;47393;38.758;-9.164;2022-08-01T04:29:49;23.65;;;17.02;;
61523;SDS011;47393;38.758;-9.164;2022-08-01T04:31:53;28.37;;;18.20;;
61523;SDS011;47393;38.758;-9.164;2022-08-01T04:35:58;37.92;;;19.40;;
61523;SDS011;47393;38.758;-9.164;2022-08-01T04:38:01;36.97;;;18.40;;
61523;SDS011;47393;38.758;-9.164;2022-08-01T04:40:03;34.03;;;17.13;;
61523;SDS011;47393;38.758;-9.164;2022-08-01T04:42:06;31.75;;;17.20;;
61523;SDS011;47393;38.758;-9.164;2022-08-01T04:44:07;28.17;;;16.90;;
61523;SDS011;47393;38.758;-9.164;2022-08-01T04:46:09;27.92;;;17.02;;
61523;SDS011;47393;38.758;-9.164;2022-08-01T04:48:10;32.78;;;19.15;;
61523;SDS011;47393;38.758;-9.164;2022-08-01T04:50:13;38.80;;;19.98;;
61523;SDS011;47393;38.758;-9.164;2022-08-01T04:52:14;29.02;;;19.77;;
61523;SDS011;47393;38.758;-9.164;2022-08-01T04:54:15;37.38;;;20.17;;
61523;SDS011;47393;38.758;-9.164;2022-08-01T04:56:17;37.75;;;20.35;;
61523;SDS011;47393;38.758;-9.164;2022-08-01T04:58:19;39.67;;;20.70;;
61523;SDS011;47393;38.758;-9.164;2022-08-01T05:00:20;33.80;;;20.50;;
61523;SDS011;47393;38.758;-9.164;2022-08-01T05:02:23;36.45;;;20.15;;
61523;SDS011;47393;38.758;-9.164;2022-08-01T05:04:24;27.42;;;16.73;;
61523;SDS011;47393;38.758;-9.164;2022-08-01T05:06:25;32.25;;;17.88;;
61523;SDS011;47393;38.758;-9.164;2022-08-01T05:08:26;28.70;;;17.33;;
61523;SDS011;47393;38.758;-9.164;2022-08-01T05:10:27;32.63;;;19.23;;
61523;SDS011;47393;38.758;-9.164;2022-08-01T05:12:32;45.22;;;20.88;;
61523;SDS011;47393;38.758;-9.164;2022-08-01T05:16:33;38.55;;;20.13;;
61523;SDS011;47393;38.758;-9.164;2022-08-01T05:18:34;41.38;;;20.10;;
61523;SDS011;47393;38.758;-9.164;2022-08-01T05:20:35;27.38;;;18.42;;
61523;SDS011;47393;38.758;-9.164;2022-08-01T05:22:37;32.95;;;18.48;;
61523;SDS011;47393;38.758;-9.164;2022-08-01T05:24:39;32.85;;;18.15;;
61523;SDS011;47393;38.758;-9.164;2022-08-01T05:26:40;39.80;;;17.17;;
61523;SDS011;47393;38.758;-9.164;2022-08-01T05:28:41;28.90;;;14.63;;
61523;SDS011;47393;38.758;-9.164;2022-08-01T05:30:42;24.42;;;14.80;;
61523;SDS011;47393;38.758;-9.164;2022-08-01T05:32:43;21.92;;;13.25;;
61523;SDS011;47393;38.758;-9.164;2022-08-01T05:34:44;14.57;;;11.73;;
61523;SDS011;47393;38.758;-9.164;2022-08-01T05:36:45;21.00;;;12.30;;
61523;SDS011;47393;38.758;-9.164;2022-08-01T05:38:46;20.20;;;12.13;;
61523;SDS011;47393;38.758;-9.164;2022-08-01T05:40:47;19.65;;;11.57;;
61523;SDS011;47393;38.758;-9.164;2022-08-01T05:42:48;16.45;;;11.90;;
61523;SDS011;47393;38.758;-9.164;2022-08-01T05:44:49;19.05;;;12.15;;
61523;SDS011;47393;38.758;-9.164;2022-08-01T05:46:53;22.33;;;12.50;;
61523;SDS011;47393;38.758;-9.164;2022-08-01T05:48:57;18.20;;;12.13;;
61523;SDS011;47393;38.758;-9.164;2022-08-01T05:50:58;17.15;;;12.23;;
61523;SDS011;47393;38.758;-9.164;2022-08-01T05:52:59;19.65;;;11.77;;
61523;SDS011;47393;38.758;-9.164;2022-08-01T05:55:01;22.15;;;13.05;;
61523;SDS011;47393;38.758;-9.164;2022-08-01T05:57:02;20.92;;;12.13;;
61523;SDS011;47393;38.758;-9.164;2022-08-01T05:59:03;17.52;;;11.50;;
61523;SDS011;47393;38.758;-9.164;2022-08-01T06:01:07;20.63;;;11.80;;
61523;SDS011;47393;38.758;-9.164;2022-08-01T06:03:08;25.17;;;11.73;;
61523;SDS011;47393;38.758;-9.164;2022-08-01T06:05:09;20.77;;;10.52;;
61523;SDS011;47393;38.758;-9.164;2022-08-01T06:07:11;23.13;;;13.38;;
61523;SDS011;47393;38.758;-9.164;2022-08-01T06:09:12;26.60;;;12.82;;
61523;SDS011;47393;38.758;-9.164;2022-08-01T06:11:13;23.77;;;12.32;;
61523;SDS011;47393;38.758;-9.164;2022-08-01T06:13:14;20.17;;;11.80;;
61523;SDS011;47393;38.758;-9.164;2022-08-01T06:15:15;20.35;;;10.57;;
61523;SDS011;47393;38.758;-9.164;2022-08-01T06:17:16;12.60;;;8.60;;
61523;SDS011;47393;38.758;-9.164;2022-08-01T06:19:17;12.95;;;8.38;;
61523;SDS011;47393;38.758;-9.164;2022-08-01T06:21:19;17.30;;;7.20;;
61523;SDS011;47393;38.758;-9.164;2022-08-01T06:23:20;13.25;;;6.40;;
61523;SDS011;47393;38.758;-9.164;2022-08-01T06:25:22;9.40;;;6.00;;
61523;SDS011;47393;38.758;-9.164;2022-08-01T06:27:23;6.03;;;5.43;;
61523;SDS011;47393;38.758;-9.164;2022-08-01T06:29:24;12.07;;;6.55;;
61523;SDS011;47393;38.758;-9.164;2022-08-01T06:31:24;6.75;;;5.25;;
61523;SDS011;47393;38.758;-9.164;2022-08-01T06:33:26;7.80;;;4.75;;
61523;SDS011;47393;38.758;-9.164;2022-08-01T06:35:30;8.65;;;5.40;;
61523;SDS011;47393;38.758;-9.164;2022-08-01T06:39:32;8.82;;;5.50;;
61523;SDS011;47393;38.758;-9.164;2022-08-01T06:41:33;12.27;;;5.93;;
61523;SDS011;47393;38.758;-9.164;2022-08-01T06:43:34;9.30;;;5.20;;
61523;SDS011;47393;38.758;-9.164;2022-08-01T06:45:35;8.00;;;5.60;;
61523;SDS011;47393;38.758;-9.164;2022-08-01T06:47:37;18.83;;;5.43;;
61523;SDS011;47393;38.758;-9.164;2022-08-01T06:49:39;20.55;;;6.00;;
61523;SDS011;47393;38.758;-9.164;2022-08-01T06:51:40;9.45;;;5.40;;
61523;SDS011;47393;38.758;-9.164;2022-08-01T06:53:41;9.48;;;5.75;;
61523;SDS011;47393;38.758;-9.164;2022-08-01T06:55:42;9.07;;;6.07;;
61523;SDS011;47393;38.758;-9.164;2022-08-01T06:57:47;6.90;;;5.78;;
61523;SDS011;47393;38.758;-9.164;2022-08-01T06:59:53;12.25;;;5.88;;
61523;SDS011;47393;38.758;-9.164;2022-08-01T07:02:03;9.02;;;4.80;;
61523;SDS011;47393;38.758;-9.164;2022-08-01T07:04:04;8.82;;;4.68;;
61523;SDS011;47393;38.758;-9.164;2022-08-01T07:06:05;12.95;;;4.65;;
61523;SDS011;47393;38.758;-9.164;2022-08-01T07:08:10;7.88;;;4.45;;
61523;SDS011;47393;38.758;-9.164;2022-08-01T07:10:12;6.20;;;5.18;;
61523;SDS011;47393;38.758;-9.164;2022-08-01T07:12:13;8.52;;;4.72;;
61523;SDS011;47393;38.758;-9.164;2022-08-01T07:14:13;6.18;;;4.53;;
61523;SDS011;47393;38.758;-9.164;2022-08-01T07:16:18;6.65;;;4.45;;
61523;SDS011;47393;38.758;-9.164;2022-08-01T07:18:25;4.65;;;4.22;;
61523;SDS011;47393;38.758;-9.164;2022-08-01T07:20:26;14.48;;;4.50;;
61523;SDS011;47393;38.758;-9.164;2022-08-01T07:22:27;6.53;;;4.65;;
61523;SDS011;47393;38.758;-9.164;2022-08-01T07:24:28;5.40;;;3.85;;
61523;SDS011;47393;38.758;-9.164;2022-08-01T07:26:29;4.38;;;3.90;;
61523;SDS011;47393;38.758;-9.164;2022-08-01T07:28:30;6.80;;;3.88;;
61523;SDS011;47393;38.758;-9.164;2022-08-01T07:30:31;9.82;;;3.92;;
61523;SDS011;47393;38.758;-9.164;2022-08-01T07:32:32;15.10;;;4.30;;
61523;SDS011;47393;38.758;-9.164;2022-08-01T07:34:37;4.50;;;3.95;;
61523;SDS011;47393;38.758;-9.164;2022-08-01T07:36:38;6.45;;;4.22;;
61523;SDS011;47393;38.758;-9.164;2022-08-01T07:38:39;15.25;;;4.35;;
61523;SDS011;47393;38.758;-9.164;2022-08-01T07:40:40;6.03;;;4.03;;
61523;SDS011;47393;38.758;-9.164;2022-08-01T07:42:41;11.38;;;4.63;;
61523;SDS011;47393;38.758;-9.164;2022-08-01T07:44:42;11.43;;;4.45;;
61523;SDS011;47393;38.758;-9.164;2022-08-01T07:46:44;10.55;;;4.68;;
61523;SDS011;47393;38.758;-9.164;2022-08-01T07:48:45;13.00;;;4.35;;
61523;SDS011;47393;38.758;-9.164;2022-08-01T07:50:49;6.00;;;4.63;;
61523;SDS011;47393;38.758;-9.164;2022-08-01T07:52:50;10.32;;;4.28;;
61523;SDS011;47393;38.758;-9.164;2022-08-01T07:54:51;10.85;;;5.60;;
61523;SDS011;47393;38.758;-9.164;2022-08-01T07:56:53;13.07;;;5.85;;
61523;SDS011;47393;38.758;-9.164;2022-08-01T07:58:57;11.48;;;5.38;;
61523;SDS011;47393;38.758;-9.164;2022-08-01T08:00:59;10.85;;;5.88;;
61523;SDS011;47393;38.758;-9.164;2022-08-01T08:03:00;11.25;;;6.53;;
61523;SDS011;47393;38.758;-9.164;2022-08-01T08:05:01;13.93;;;6.38;;
61523;SDS011;47393;38.758;-9.164;2022-08-01T08:07:03;15.82;;;6.20;;
61523;SDS011;47393;38.758;-9.164;2022-08-01T08:09:04;13.30;;;7.20;;
61523;SDS011;47393;38.758;-9.164;2022-08-01T08:11:05;13.75;;;7.75;;
61523;SDS011;47393;38.758;-9.164;2022-08-01T08:13:05;14.18;;;7.25;;
61523;SDS011;47393;38.758;-9.164;2022-08-01T08:15:06;24.48;;;7.13;;
61523;SDS011;47393;38.758;-9.164;2022-08-01T08:17:08;17.70;;;6.90;;
61523;SDS011;47393;38.758;-9.164;2022-08-01T08:19:09;13.75;;;6.85;;
61523;SDS011;47393;38.758;-9.164;2022-08-01T08:21:10;11.88;;;7.45;;
61523;SDS011;47393;38.758;-9.164;2022-08-01T08:23:10;14.50;;;6.72;;
61523;SDS011;47393;38.758;-9.164;2022-08-01T08:25:30;15.52;;;7.53;;
61523;SDS011;47393;38.758;-9.164;2022-08-01T08:27:31;22.10;;;7.05;;
61523;SDS011;47393;38.758;-9.164;2022-08-01T08:29:32;14.93;;;6.80;;
61523;SDS011;47393;38.758;-9.164;2022-08-01T08:31:32;19.10;;;7.63;;
61523;SDS011;47393;38.758;-9.164;2022-08-01T08:33:36;18.30;;;7.07;;
61523;SDS011;47393;38.758;-9.164;2022-08-01T08:35:38;13.95;;;7.07;;
61523;SDS011;47393;38.758;-9.164;2022-08-01T08:37:40;10.77;;;6.30;;
61523;SDS011;47393;38.758;-9.164;2022-08-01T08:39:44;14.95;;;6.47;;
61523;SDS011;47393;38.758;-9.164;2022-08-01T08:41:45;9.23;;;6.30;;
61523;SDS011;47393;38.758;-9.164;2022-08-01T08:43:47;16.67;;;6.80;;
61523;SDS011;47393;38.758;-9.164;2022-08-01T08:45:49;33.42;;;7.55;;
61523;SDS011;47393;38.758;-9.164;2022-08-01T08:47:51;21.52;;;6.00;;
61523;SDS011;47393;38.758;-9.164;2022-08-01T08:49:57;11.65;;;6.38;;
61523;SDS011;47393;38.758;-9.164;2022-08-01T08:51:59;12.80;;;5.82;;
61523;SDS011;47393;38.758;-9.164;2022-08-01T08:54:00;25.48;;;6.43;;
61523;SDS011;47393;38.758;-9.164;2022-08-01T08:56:05;17.67;;;6.20;;
61523;SDS011;47393;38.758;-9.164;2022-08-01T08:58:11;16.58;;;6.80;;
61523;SDS011;47393;38.758;-9.164;2022-08-01T09:00:14;20.45;;;6.18;;
61523;SDS011;47393;38.758;-9.164;2022-08-01T09:02:15;12.13;;;5.95;;
61523;SDS011;47393;38.758;-9.164;2022-08-01T09:04:16;22.45;;;6.43;;
61523;SDS011;47393;38.758;-9.164;2022-08-01T09:06:17;11.48;;;5.95;;
61523;SDS011;47393;38.758;-9.164;2022-08-01T09:08:18;15.82;;;6.15;;
61523;SDS011;47393;38.758;-9.164;2022-08-01T09:10:21;16.20;;;6.65;;
61523;SDS011;47393;38.758;-9.164;2022-08-01T09:12:22;24.23;;;6.57;;
61523;SDS011;47393;38.758;-9.164;2022-08-01T09:14:24;10.73;;;6.57;;
61523;SDS011;47393;38.758;-9.164;2022-08-01T09:16:29;11.38;;;6.53;;
61523;SDS011;47393;38.758;-9.164;2022-08-01T09:20:42;6.22;;;5.47;;
61523;SDS011;47393;38.758;-9.164;2022-08-01T09:22:43;14.23;;;5.93;;
61523;SDS011;47393;38.758;-9.164;2022-08-01T09:25:04;13.43;;;5.88;;
61523;SDS011;47393;38.758;-9.164;2022-08-01T09:27:20;17.43;;;7.60;;
61523;SDS011;47393;38.758;-9.164;2022-08-01T09:29:23;12.68;;;6.63;;
61523;SDS011;47393;38.758;-9.164;2022-08-01T09:31:26;19.27;;;6.63;;
61523;SDS011;47393;38.758;-9.164;2022-08-01T09:33:45;9.20;;;6.38;;
61523;SDS011;47393;38.758;-9.164;2022-08-01T09:35:54;9.15;;;6.15;;
61523;SDS011;47393;38.758;-9.164;2022-08-01T09:40:23;10.98;;;6.57;;
61523;SDS011;47393;38.758;-9.164;2022-08-01T09:42:25;9.15;;;5.93;;
61523;SDS011;47393;38.758;-9.164;2022-08-01T09:44:39;13.98;;;6.13;;
61523;SDS011;47393;38.758;-9.164;2022-08-01T09:46:51;13.82;;;5.53;;
61523;SDS011;47393;38.758;-9.164;2022-08-01T09:48:54;10.35;;;5.60;;
61523;SDS011;47393;38.758;-9.164;2022-08-01T09:50:59;13.55;;;5.68;;
61523;SDS011;47393;38.758;-9.164;2022-08-01T09:53:00;19.23;;;5.75;;
61523;SDS011;47393;38.758;-9.164;2022-08-01T09:55:03;7.65;;;5.80;;
61523;SDS011;47393;38.758;-9.164;2022-08-01T09:57:09;9.10;;;6.10;;
61523;SDS011;47393;38.758;-9.164;2022-08-01T09:59:14;14.63;;;5.93;;
61523;SDS011;47393;38.758;-9.164;2022-08-01T10:01:15;8.45;;;6.18;;
61523;SDS011;47393;38.758;-9.164;2022-08-01T10:03:20;9.73;;;5.88;;
61523;SDS011;47393;38.758;-9.164;2022-08-01T10:05:32;25.75;;;6.63;;
61523;SDS011;47393;38.758;-9.164;2022-08-01T10:10:11;11.82;;;6.63;;
61523;SDS011;47393;38.758;-9.164;2022-08-01T10:12:22;11.60;;;6.45;;
61523;SDS011;47393;38.758;-9.164;2022-08-01T10:14:27;11.32;;;5.90;;
61523;SDS011;47393;38.758;-9.164;2022-08-01T10:16:29;9.30;;;5.47;;
61523;SDS011;47393;38.758;-9.164;2022-08-01T10:18:33;21.15;;;5.63;;
61523;SDS011;47393;38.758;-9.164;2022-08-01T10:20:35;22.05;;;6.03;;
61523;SDS011;47393;38.758;-9.164;2022-08-01T10:22:36;10.50;;;5.55;;
61523;SDS011;47393;38.758;-9.164;2022-08-01T10:24:41;30.70;;;7.40;;
61523;SDS011;47393;38.758;-9.164;2022-08-01T10:26:47;31.98;;;7.03;;
61523;SDS011;47393;38.758;-9.164;2022-08-01T10:28:50;31.05;;;7.80;;
61523;SDS011;47393;38.758;-9.164;2022-08-01T10:30:52;12.77;;;6.93;;
61523;SDS011;47393;38.758;-9.164;2022-08-01T10:32:54;20.45;;;7.80;;
61523;SDS011;47393;38.758;-9.164;2022-08-01T10:34:59;14.52;;;6.95;;
61523;SDS011;47393;38.758;-9.164;2022-08-01T10:37:07;20.95;;;7.30;;
61523;SDS011;47393;38.758;-9.164;2022-08-01T10:39:11;17.50;;;7.40;;
61523;SDS011;47393;38.758;-9.164;2022-08-01T10:41:13;17.10;;;7.03;;
61523;SDS011;47393;38.758;-9.164;2022-08-01T10:43:15;17.80;;;7.07;;
61523;SDS011;47393;38.758;-9.164;2022-08-01T10:45:19;33.83;;;7.57;;
61523;SDS011;47393;38.758;-9.164;2022-08-01T10:47:37;29.67;;;7.03;;
61523;SDS011;47393;38.758;-9.164;2022-08-01T10:49:43;20.90;;;8.18;;
61523;SDS011;47393;38.758;-9.164;2022-08-01T10:51:48;32.40;;;7.60;;
61523;SDS011;47393;38.758;-9.164;2022-08-01T10:53:52;33.35;;;8.07;;
61523;SDS011;47393;38.758;-9.164;2022-08-01T10:58:03;20.67;;;7.10;;
61523;SDS011;47393;38.758;-9.164;2022-08-01T11:00:08;23.13;;;7.90;;
61523;SDS011;47393;38.758;-9.164;2022-08-01T11:02:10;20.70;;;7.95;;
61523;SDS011;47393;38.758;-9.164;2022-08-01T11:04:13;27.58;;;8.25;;
61523;SDS011;47393;38.758;-9.164;2022-08-01T11:06:15;27.10;;;7.82;;
61523;SDS011;47393;38.758;-9.164;2022-08-01T11:08:23;49.65;;;10.23;;
61523;SDS011;47393;38.758;-9.164;2022-08-01T11:10:25;37.15;;;7.38;;
61523;SDS011;47393;38.758;-9.164;2022-08-01T11:12:38;30.42;;;7.28;;
61523;SDS011;47393;38.758;-9.164;2022-08-01T11:22:18;25.98;;;5.90;;
61523;SDS011;47393;38.758;-9.164;2022-08-01T11:27:31;15.40;;;5.32;;
61523;SDS011;47393;38.758;-9.164;2022-08-01T11:29:22;27.73;;;6.55;;
61523;SDS011;47393;38.758;-9.164;2022-08-01T11:38:25;19.92;;;5.25;;
61523;SDS011;47393;38.758;-9.164;2022-08-01T11:40:28;14.82;;;4.50;;
61523;SDS011;47393;38.758;-9.164;2022-08-01T11:42:29;11.60;;;4.68;;
61523;SDS011;47393;38.758;-9.164;2022-08-01T11:44:30;13.70;;;5.13;;
61523;SDS011;47393;38.758;-9.164;2022-08-01T11:46:52;11.25;;;5.15;;
61523;SDS011;47393;38.758;-9.164;2022-08-01T11:51:27;15.00;;;4.50;;
61523;SDS011;47393;38.758;-9.164;2022-08-01T11:53:28;16.80;;;3.70;;
61523;SDS011;47393;38.758;-9.164;2022-08-01T11:55:35;7.80;;;4.30;;
61523;SDS011;47393;38.758;-9.164;2022-08-01T11:57:36;12.32;;;4.10;;
61523;SDS011;47393;38.758;-9.164;2022-08-01T11:59:38;13.30;;;4.25;;
61523;SDS011;47393;38.758;-9.164;2022-08-01T12:01:48;9.75;;;4.65;;
61523;SDS011;47393;38.758;-9.164;2022-08-01T12:03:55;13.20;;;4.88;;
61523;SDS011;47393;38.758;-9.164;2022-08-01T12:05:58;7.57;;;3.95;;
61523;SDS011;47393;38.758;-9.164;2022-08-01T12:08:00;9.00;;;3.75;;
61523;SDS011;47393;38.758;-9.164;2022-08-01T12:10:04;12.80;;;3.60;;
61523;SDS011;47393;38.758;-9.164;2022-08-01T12:12:15;4.90;;;3.28;;
61523;SDS011;47393;38.758;-9.164;2022-08-01T12:14:18;11.93;;;4.00;;
61523;SDS011;47393;38.758;-9.164;2022-08-01T12:16:20;7.47;;;4.00;;
61523;SDS011;47393;38.758;-9.164;2022-08-01T12:18:23;8.98;;;3.88;;
61523;SDS011;47393;38.758;-9.164;2022-08-01T12:20:34;8.07;;;3.75;;
61523;SDS011;47393;38.758;-9.164;2022-08-01T12:22:37;4.50;;;3.50;;
61523;SDS011;47393;38.758;-9.164;2022-08-01T12:24:39;6.30;;;4.20;;
61523;SDS011;47393;38.758;-9.164;2022-08-01T12:28:42;9.27;;;3.95;;
61523;SDS011;47393;38.758;-9.164;2022-08-01T12:30:43;14.82;;;3.72;;
61523;SDS011;47393;38.758;-9.164;2022-08-01T12:32:48;10.02;;;3.17;;
61523;SDS011;47393;38.758;-9.164;2022-08-01T12:34:50;7.05;;;3.60;;
61523;SDS011;47393;38.758;-9.164;2022-08-01T12:36:54;11.95;;;3.53;;
61523;SDS011;47393;38.758;-9.164;2022-08-01T12:38:59;7.57;;;3.17;;
61523;SDS011;47393;38.758;-9.164;2022-08-01T12:41:00;7.47;;;3.42;;
61523;SDS011;47393;38.758;-9.164;2022-08-01T12:43:03;9.90;;;2.92;;
61523;SDS011;47393;38.758;-9.164;2022-08-01T12:45:05;7.47;;;2.95;;
61523;SDS011;47393;38.758;-9.164;2022-08-01T12:47:08;8.23;;;3.50;;
61523;SDS011;47393;38.758;-9.164;2022-08-01T12:49:11;9.35;;;3.20;;
61523;SDS011;47393;38.758;-9.164;2022-08-01T12:51:12;5.47;;;3.35;;
61523;SDS011;47393;38.758;-9.164;2022-08-01T12:53:13;8.77;;;3.30;;